Arrow Rock, Missouri
Current Conditions -  °F | °C
As of 1:55 PM on Sunday 21 Dec 2014 (Local Time) from KVER Reporting Station
Overcast Overcast  
Wind Chill: 38°   Ceiling: 1600
Heat Index: 45°   Visibility: 10mi
Dew Point: 40°   Wind: 15mph
Humidity: 84%   Direction: 160°SSE
Pressure: 29.95"   Gusts: 20mph
Location:  39.07°N, 92.95°W
Report Text: KVER 211955Z AUTO 16013G17KT 10SM OVC016 07/05 A2995 RMK AO2 T00710045
Loading
Personal Weather Stations






























Interactive Weather Map New forecast layout! Learn more

10-Day Weather Forecast

Advertisements
Track Severe Weather on mobile